Time;durP1;ratioP1;P1;durP2;ratioP2;P2;SDS_P1;SDS_P2;PMS_P1;PMS_P2;Temp;Humidity;BMP_temperature;BMP_pressure;BME280_temperature;BME280_humidity;BME280_pressure;Samples;Min_cycle;Max_cycle;Signal;HPM_P1;HPM_P2
2023/12/21 00:00:31;;;;;;;;;;;;;;;7.21;100.00;99402.44;5022630;28;19917;-84
2023/12/21 00:02:56;;;;;;;;;;;;;;;7.27;100.00;99399.59;5021856;28;19928;-85
2023/12/21 00:05:21;;;;;;;;;;;;;;;7.32;100.00;99405.56;5022611;28;19931;-84
2023/12/21 00:07:46;;;;;;;;;;;;;;;7.38;100.00;99410.63;5023588;28;20319;-88
2023/12/21 00:10:12;;;;;;;;;;;;;;;7.49;100.00;99409.41;5022341;28;19921;-85
2023/12/21 00:12:39;;;;;;;;;;;;;;;7.51;100.00;99397.00;5022493;28;20283;-90
2023/12/21 00:15:04;;;;;;;;;;;;;;;7.56;100.00;99400.34;5023274;28;20293;-89
2023/12/21 00:17:32;;;;;;;;;;;;;;;7.56;100.00;99390.66;5021810;28;20000;-88
2023/12/21 00:19:58;;;;;;;;;;;;;;;7.56;100.00;99382.75;5023145;28;20250;-88
2023/12/21 00:22:23;;;;;;;;;;;;;;;7.64;100.00;99379.81;5020865;28;19924;-83
2023/12/21 00:24:48;;;;;;;;;;;;;;;7.68;100.00;99372.66;5022115;28;20019;-87
2023/12/21 00:27:13;;;;;;;;;;;;;;;7.73;100.00;99354.88;5022444;28;20391;-87
2023/12/21 00:29:39;;;;;;;;;;;;;;;7.73;100.00;99350.47;5022063;28;19976;-87
2023/12/21 00:32:05;;;;;;;;;;;;;;;7.78;100.00;99345.88;5020179;28;19999;-86
2023/12/21 00:34:30;;;;;;;;;;;;;;;7.63;100.00;99342.03;5021949;28;19923;-84
2023/12/21 00:36:55;;;;;;;;;;;;;;;6.09;100.00;99341.25;5022277;28;19921;-86
2023/12/21 00:39:23;;;;;;;;;;;;;;;5.58;100.00;99329.59;5021832;28;19928;-87
2023/12/21 00:41:48;;;;;;;;;;;;;;;5.23;100.00;99328.84;5021958;28;20385;-83
2023/12/21 00:44:13;;;;;;;;;;;;;;;5.00;100.00;99325.13;5022308;28;19921;-82
2023/12/21 00:46:38;;;;;;;;;;;;;;;4.85;100.00;99321.16;5020484;28;19917;-80
2023/12/21 00:49:04;;;;;;;;;;;;;;;4.80;100.00;99322.16;5020297;28;20288;-83
2023/12/21 00:51:29;;;;;;;;;;;;;;;4.71;100.00;99312.78;5021730;28;19925;-83
2023/12/21 00:53:54;;;;;;;;;;;;;;;4.65;100.00;99312.94;5021373;28;19924;-82
2023/12/21 00:56:19;;;;;;;;;;;;;;;4.53;100.00;99306.22;5020125;28;19928;-82
2023/12/21 00:58:45;;;;;;;;;;;;;;;4.52;100.00;99308.00;5021919;28;20361;-82
2023/12/21 09:03:42;;;;;;;;;;;;;;;5.90;100.00;98697.56;5000715;28;19944;-78
2023/12/21 09:06:08;;;;;;;;;;;;;;;5.67;100.00;98668.75;5001463;28;19964;-81
2023/12/21 09:08:34;;;;;;;;;;;;;;;5.48;100.00;98674.72;5001985;28;20365;-79
2023/12/21 09:10:59;;;;;;;;;;;;;;;5.28;100.00;98651.84;5000655;28;19917;-81
2023/12/21 09:13:24;;;;;;;;;;;;;;;5.25;100.00;98646.75;5000119;28;19932;-78
2023/12/21 09:15:50;;;;;;;;;;;;;;;5.21;100.00;98656.50;4998131;28;19928;-81
2023/12/21 09:18:15;;;;;;;;;;;;;;;5.09;100.00;98646.50;5001765;28;19926;-81
2023/12/21 09:20:40;;;;;;;;;;;;;;;5.07;100.00;98653.56;5002379;28;19929;-79
2023/12/21 09:23:05;;;;;;;;;;;;;;;5.12;100.00;98662.09;5000510;28;19922;-79
2023/12/21 09:25:31;;;;;;;;;;;;;;;10.72;100.00;98648.47;5001619;28;20468;-79
2023/12/21 09:27:57;;;;;;;;;;;;;;;8.56;100.00;98654.53;5001198;28;20009;-78
2023/12/21 09:30:25;;;;;;;;;;;;;;;6.99;100.00;98656.91;4999537;28;20016;-80
2023/12/21 09:32:50;;;;;;;;;;;;;;;6.38;100.00;98660.53;5003630;28;20357;-80
2023/12/21 09:35:16;;;;;;;;;;;;;;;6.19;100.00;98669.25;5006308;28;19964;-79
2023/12/21 09:37:41;;;;;;;;;;;;;;;10.30;100.00;98650.06;5006420;28;19918;-80
2023/12/21 09:40:07;;;;;;;;;;;;;;;12.08;100.00;98631.00;5006609;28;20008;-82
2023/12/21 09:42:37;;;;;;;;;;;;;;;12.11;100.00;98602.41;5006011;28;19972;-82
2023/12/21 09:45:03;;;;;;;;;;;;;;;11.56;100.00;98590.16;5005075;28;20364;-83
2023/12/21 09:47:30;;;;;;;;;;;;;;;12.16;100.00;98595.00;5006161;28;20438;-84
2023/12/21 09:49:55;;;;;;;;;;;;;;;11.59;100.00;98561.63;5020296;28;19924;-83
2023/12/21 09:52:21;;;;;;;;;;;;;;;13.03;100.00;98573.00;5006608;28;20293;-82
2023/12/21 09:54:49;;;;;;;;;;;;;;;13.76;100.00;98557.94;5005645;28;19922;-82
2023/12/21 09:57:14;;;;;;;;;;;;;;;14.05;100.00;98542.38;5006429;28;20379;-82
2023/12/21 09:59:40;;;;;;;;;;;;;;;12.88;100.00;98548.38;5004914;28;19936;-86
2023/12/21 10:02:12;;;;;;;;;;;;;;;12.16;100.00;98556.97;5005928;28;19929;-85
2023/12/21 10:04:44;;;;;;;;;;;;;;;13.18;100.00;98563.06;5004923;28;19918;-82
2023/12/21 10:07:12;;;;;;;;;;;;;;;12.56;100.00;98567.47;5005306;28;19918;-85
2023/12/21 10:09:38;;;;;;;;;;;;;;;13.02;100.00;98565.97;5004973;28;19918;-82
2023/12/21 10:12:03;;;;;;;;;;;;;;;12.97;100.00;98562.81;5005743;28;20440;-81
2023/12/21 10:14:31;;;;;;;;;;;;;;;12.88;100.00;98562.50;5005733;28;20012;-79
2023/12/21 10:16:58;;;;;;;;;;;;;;;13.89;100.00;98542.72;5005803;28;19968;-79
2023/12/21 10:19:24;;;;;;;;;;;;;;;14.24;100.00;98539.16;5005747;28;19918;-81
2023/12/21 10:21:49;;;;;;;;;;;;;;;14.28;100.00;98540.63;5006113;28;20008;-76
2023/12/21 10:24:14;;;;;;;;;;;;;;;13.92;100.00;98539.81;5005990;28;20400;-85
2023/12/21 10:26:43;;;;;;;;;;;;;;;13.53;100.00;98533.03;5005683;28;20918;-88
2023/12/21 10:29:09;;;;;;;;;;;;;;;9.48;100.00;98563.19;5005758;28;19957;-81
2023/12/21 10:31:34;;;;;;;;;;;;;;;8.38;100.00;98558.66;5004972;28;19956;-83
2023/12/21 10:33:59;;;;;;;;;;;;;;;7.87;100.00;98547.25;5004883;28;20458;-82
2023/12/21 10:36:26;;;;;;;;;;;;;;;7.58;100.00;98545.16;5004199;28;19975;-85
2023/12/21 10:38:51;;;;;;;;;;;;;;;7.70;100.00;98538.41;5000535;28;19988;-81
2023/12/21 10:41:17;;;;;;;;;;;;;;;7.28;100.00;98547.53;5003470;28;20388;-80
2023/12/21 10:43:42;;;;;;;;;;;;;;;6.97;100.00;98520.03;5003252;28;19928;-83
2023/12/21 10:46:09;;;;;;;;;;;;;;;6.94;100.00;98520.22;5004229;28;20276;-83
2023/12/21 10:48:35;;;;;;;;;;;;;;;6.71;100.00;98521.28;5004714;28;20301;-83
2023/12/21 10:51:02;;;;;;;;;;;;;;;6.69;100.00;98516.09;5002553;28;20035;-81
2023/12/21 10:53:31;;;;;;;;;;;;;;;6.62;100.00;98500.66;5005610;28;20392;-86
2023/12/21 10:55:56;;;;;;;;;;;;;;;6.59;100.00;98475.38;5002740;28;19932;-87
2023/12/21 10:58:23;;;;;;;;;;;;;;;6.50;100.00;98484.53;5003553;28;20292;-83
2023/12/21 11:00:49;;;;;;;;;;;;;;;6.34;100.00;98463.34;5003728;28;19917;-82
2023/12/21 11:03:16;;;;;;;;;;;;;;;6.29;100.00;98469.75;5005420;28;19922;-82
2023/12/21 11:05:45;;;;;;;;;;;;;;;9.29;100.00;98473.53;5000841;28;19926;-81
2023/12/21 11:08:11;;;;;;;;;;;;;;;6.98;100.00;98478.78;4987177;28;20372;-82
2023/12/21 11:10:37;;;;;;;;;;;;;;;6.48;100.00;98459.22;5003898;28;19917;-81
2023/12/21 11:13:02;;;;;;;;;;;;;;;6.26;100.00;98460.22;5003612;28;19940;-80
2023/12/21 11:15:28;;;;;;;;;;;;;;;6.18;100.00;98470.25;5003406;28;19924;-84
2023/12/21 11:17:59;;;;;;;;;;;;;;;6.24;100.00;98458.56;5004171;28;20443;-84
2023/12/21 11:20:28;;;;;;;;;;;;;;;6.20;100.00;98462.28;5003954;28;19925;-82
2023/12/21 11:22:53;;;;;;;;;;;;;;;6.13;100.00;98451.19;5003561;28;19921;-84
2023/12/21 11:25:22;;;;;;;;;;;;;;;6.10;100.00;98431.16;5004789;28;19944;-82
2023/12/21 11:27:48;;;;;;;;;;;;;;;6.11;100.00;98429.34;5003164;28;19928;-80
2023/12/21 11:30:14;;;;;;;;;;;;;;;5.95;100.00;98423.91;5002814;28;19918;-79
2023/12/21 11:32:43;;;;;;;;;;;;;;;5.92;100.00;98411.78;5003674;28;19972;-82
2023/12/21 11:35:22;;;;;;;;;;;;;;;5.96;100.00;98392.31;5004639;28;19992;-85
2023/12/21 11:37:57;;;;;;;;;;;;;;;5.90;100.00;98384.69;5003841;28;19914;-81
2023/12/21 11:40:23;;;;;;;;;;;;;;;5.82;100.00;98378.94;5003205;28;19924;-81
2023/12/21 11:42:49;;;;;;;;;;;;;;;5.89;100.00;98369.84;5003892;28;20283;-82
2023/12/21 11:45:25;;;;;;;;;;;;;;;5.89;100.00;98346.19;5002018;28;19921;-83
2023/12/21 11:47:52;;;;;;;;;;;;;;;5.75;100.00;98346.81;5003819;28;19913;-85
2023/12/21 11:50:18;;;;;;;;;;;;;;;5.74;100.00;98349.53;5004022;28;20281;-84
2023/12/21 11:52:43;;;;;;;;;;;;;;;5.68;100.00;98344.53;5004501;28;19957;-93
2023/12/21 11:55:09;;;;;;;;;;;;;;;5.66;100.00;98335.88;5003296;28;19983;-83
2023/12/21 11:57:39;;;;;;;;;;;;;;;5.63;100.00;98329.84;4999898;28;19972;-82
2023/12/21 12:00:18;;;;;;;;;;;;;;;5.59;100.00;98316.94;4999011;28;19932;-80
2023/12/21 12:02:44;;;;;;;;;;;;;;;5.69;100.00;98319.97;5003685;28;20226;-84
2023/12/21 12:05:18;;;;;;;;;;;;;;;5.70;100.00;98330.41;5004147;28;20392;-81
2023/12/21 12:07:43;;;;;;;;;;;;;;;5.62;100.00;98341.28;5003901;28;19918;-85
2023/12/21 12:10:08;;;;;;;;;;;;;;;5.58;100.00;98339.69;5004809;28;19987;-83
2023/12/21 12:12:34;;;;;;;;;;;;;;;5.49;100.00;98318.25;5005853;28;19979;-84
2023/12/21 12:14:59;;;;;;;;;;;;;;;5.53;100.00;98333.81;5004508;28;19940;-86
2023/12/21 12:17:26;;;;;;;;;;;;;;;5.51;100.00;98333.03;5004117;28;19917;-89
2023/12/21 12:19:54;;;;;;;;;;;;;;;5.55;100.00;98321.47;5006778;28;19918;-85
2023/12/21 12:22:19;;;;;;;;;;;;;;;5.51;100.00;98308.56;5004028;28;20012;-83
2023/12/21 12:24:46;;;;;;;;;;;;;;;5.51;100.00;98298.88;5003535;28;20044;-84
2023/12/21 12:27:12;;;;;;;;;;;;;;;5.57;100.00;98313.53;5003383;28;20045;-83
2023/12/21 12:29:37;;;;;;;;;;;;;;;5.53;100.00;98325.94;5001885;28;19918;-83
2023/12/21 12:32:03;;;;;;;;;;;;;;;5.40;100.00;98324.78;5002957;28;19917;-84
2023/12/21 12:34:28;;;;;;;;;;;;;;;5.43;100.00;98324.66;5003725;28;19941;-82
2023/12/21 12:36:54;;;;;;;;;;;;;;;5.48;100.00;98332.34;5003174;28;19918;-81
2023/12/21 12:39:22;;;;;;;;;;;;;;;5.31;100.00;98312.91;5003034;28;20284;-82
2023/12/21 12:41:57;;;;;;;;;;;;;;;5.18;100.00;98324.88;5003533;28;19941;-83
2023/12/21 12:44:22;;;;;;;;;;;;;;;5.19;100.00;98300.34;5002873;28;19965;-82
2023/12/21 12:46:48;;;;;;;;;;;;;;;5.13;100.00;98301.47;5001985;28;19959;-81
2023/12/21 12:49:13;;;;;;;;;;;;;;;5.20;100.00;98313.41;5003073;28;19918;-85
2023/12/21 12:51:42;;;;;;;;;;;;;;;5.30;100.00;98310.34;5002547;28;20440;-84
2023/12/21 12:54:07;;;;;;;;;;;;;;;5.21;100.00;98301.97;5002608;28;19973;-82
2023/12/21 12:56:43;;;;;;;;;;;;;;;5.15;100.00;98304.00;5003058;28;19975;-85
2023/12/21 12:59:08;;;;;;;;;;;;;;;5.07;100.00;98297.34;5003195;28;19921;-83
2023/12/21 13:01:33;;;;;;;;;;;;;;;5.19;100.00;98303.81;5001836;28;19918;-83
2023/12/21 13:03:59;;;;;;;;;;;;;;;5.33;100.00;98299.69;5003407;28;20360;-85
2023/12/21 13:06:24;;;;;;;;;;;;;;;5.14;100.00;98289.16;5002193;28;19921;-84
2023/12/21 13:08:49;;;;;;;;;;;;;;;5.12;100.00;98283.97;5003637;28;20363;-82
2023/12/21 13:11:15;;;;;;;;;;;;;;;5.20;100.00;98286.28;5006198;28;19921;-84
2023/12/21 13:13:41;;;;;;;;;;;;;;;5.22;100.00;98284.47;5003120;28;19928;-86
2023/12/21 13:16:06;;;;;;;;;;;;;;;5.30;100.00;98284.97;5001446;28;20297;-81
2023/12/21 13:18:33;;;;;;;;;;;;;;;5.22;100.00;98290.56;5002191;28;19928;-88
2023/12/21 13:20:58;;;;;;;;;;;;;;;5.18;100.00;98277.63;5006159;28;19924;-82
2023/12/21 13:23:24;;;;;;;;;;;;;;;5.17;100.00;98276.78;5004197;28;19918;-86
2023/12/21 13:25:49;;;;;;;;;;;;;;;5.14;100.00;98263.78;5002708;28;20029;-83
2023/12/21 13:28:14;;;;;;;;;;;;;;;5.35;100.00;98272.47;5001401;28;19917;-81
2023/12/21 13:30:39;;;;;;;;;;;;;;;5.13;100.00;98258.59;5001063;28;20384;-86
2023/12/21 13:33:07;;;;;;;;;;;;;;;4.98;100.00;98268.00;5002488;28;19921;-91
2023/12/21 13:35:32;;;;;;;;;;;;;;;4.95;100.00;98266.38;5002678;28;19925;-85
2023/12/21 13:37:58;;;;;;;;;;;;;;;5.00;100.00;98256.53;5004702;28;19940;-93
2023/12/21 13:40:27;;;;;;;;;;;;;;;5.03;100.00;98266.03;5003782;28;20388;-89
2023/12/21 13:42:52;;;;;;;;;;;;;;;4.87;100.00;98264.09;5002532;28;19917;-87
2023/12/21 13:45:19;;;;;;;;;;;;;;;4.91;100.00;98268.28;5000272;28;19918;-84
2023/12/21 13:47:45;;;;;;;;;;;;;;;4.98;100.00;98266.25;5002564;28;20000;-82
2023/12/21 13:50:10;;;;;;;;;;;;;;;4.95;100.00;98276.88;5002343;28;20013;-83
2023/12/21 13:52:36;;;;;;;;;;;;;;;4.95;100.00;98281.28;5001904;28;20324;-83
2023/12/21 13:55:01;;;;;;;;;;;;;;;5.05;100.00;98267.66;5002362;28;20307;-87
2023/12/21 13:57:28;;;;;;;;;;;;;;;4.93;100.00;98270.84;5002843;28;19968;-84
2023/12/21 13:59:55;;;;;;;;;;;;;;;4.95;100.00;98273.41;5001175;28;19921;-83
2023/12/21 14:02:20;;;;;;;;;;;;;;;4.98;100.00;98262.75;5003050;28;20019;-84
2023/12/21 14:04:45;;;;;;;;;;;;;;;4.88;100.00;98268.44;5001948;28;19961;-86
2023/12/21 14:07:11;;;;;;;;;;;;;;;4.85;100.00;98283.44;5002487;28;19929;-91
2023/12/21 14:09:38;;;;;;;;;;;;;;;4.90;100.00;98261.31;5002327;28;19960;-84
2023/12/21 14:12:04;;;;;;;;;;;;;;;4.80;100.00;98260.00;5002596;28;19965;-85
2023/12/21 14:14:29;;;;;;;;;;;;;;;4.79;100.00;98266.19;5002057;28;19957;-89
2023/12/21 14:16:55;;;;;;;;;;;;;;;4.80;100.00;98261.78;5000110;28;19925;-82
2023/12/21 14:19:20;;;;;;;;;;;;;;;4.93;100.00;98257.72;5005688;28;19925;-93
2023/12/21 14:21:45;;;;;;;;;;;;;;;4.84;100.00;98253.72;5005764;28;20585;-86
2023/12/21 14:24:11;;;;;;;;;;;;;;;4.90;100.00;98253.44;5005583;28;19922;-82
2023/12/21 14:26:36;;;;;;;;;;;;;;;4.79;100.00;98250.44;5005868;28;19936;-82
2023/12/21 14:29:01;;;;;;;;;;;;;;;4.80;100.00;98241.63;5006303;28;20387;-82
2023/12/21 14:31:26;;;;;;;;;;;;;;;4.87;100.00;98235.22;5005299;28;19972;-81
2023/12/21 14:33:52;;;;;;;;;;;;;;;4.98;100.00;98255.75;5005529;28;20024;-84
2023/12/21 14:36:18;;;;;;;;;;;;;;;4.99;100.00;98253.97;5005530;28;19922;-82
2023/12/21 14:38:43;;;;;;;;;;;;;;;4.94;100.00;98248.06;5005438;28;19914;-84
2023/12/21 14:41:09;;;;;;;;;;;;;;;4.85;100.00;98259.81;5006300;28;19928;-81
2023/12/21 14:43:34;;;;;;;;;;;;;;;4.87;100.00;98271.13;5003855;28;19913;-84
2023/12/21 14:46:00;;;;;;;;;;;;;;;4.83;100.00;98272.16;5004236;28;19928;-79
2023/12/21 14:48:25;;;;;;;;;;;;;;;4.80;100.00;98275.75;5007916;28;19917;-81
2023/12/21 14:50:50;;;;;;;;;;;;;;;4.81;100.00;98269.59;5005763;28;19960;-86
2023/12/21 14:53:16;;;;;;;;;;;;;;;4.72;100.00;98273.50;5004431;28;20363;-84
2023/12/21 14:55:41;;;;;;;;;;;;;;;4.65;100.00;98269.41;5005814;28;19964;-93
2023/12/21 14:58:07;;;;;;;;;;;;;;;4.70;100.00;98298.91;5006595;28;19924;-93
2023/12/21 15:00:32;;;;;;;;;;;;;;;4.62;100.00;98305.44;5003651;28;19921;-86
2023/12/21 15:02:59;;;;;;;;;;;;;;;4.73;100.00;98293.53;5003834;28;19922;-86
2023/12/21 15:05:24;;;;;;;;;;;;;;;4.72;100.00;98288.34;5004837;28;19972;-84
2023/12/21 15:07:49;;;;;;;;;;;;;;;4.68;100.00;98289.44;5003725;28;20400;-85
2023/12/21 15:10:15;;;;;;;;;;;;;;;4.64;100.00;98278.22;5004735;28;19918;-84
2023/12/21 15:12:40;;;;;;;;;;;;;;;4.64;100.00;98282.59;5004775;28;19937;-82
2023/12/21 15:15:06;;;;;;;;;;;;;;;4.71;100.00;98284.06;5004014;28;19918;-81
2023/12/21 15:17:31;;;;;;;;;;;;;;;4.71;100.00;98282.28;5005572;28;20389;-79
2023/12/21 15:19:56;;;;;;;;;;;;;;;4.69;100.00;98291.09;5005742;28;19925;-83
2023/12/21 15:22:21;;;;;;;;;;;;;;;4.78;100.00;98282.00;5002959;28;20293;-82
2023/12/21 15:24:47;;;;;;;;;;;;;;;4.71;100.00;98273.56;5004525;28;19924;-83
2023/12/21 15:27:12;;;;;;;;;;;;;;;4.66;100.00;98275.50;5004620;28;19921;-81
2023/12/21 15:29:38;;;;;;;;;;;;;;;4.63;100.00;98281.75;5002185;28;20056;-81
2023/12/21 15:32:03;;;;;;;;;;;;;;;4.66;100.00;98280.75;5002538;28;20405;-91
2023/12/21 15:34:29;;;;;;;;;;;;;;;4.64;100.00;98282.59;5006147;28;19917;-91
2023/12/21 15:36:54;;;;;;;;;;;;;;;4.61;100.00;98278.34;5005669;28;19918;-81
2023/12/21 15:39:19;;;;;;;;;;;;;;;4.65;100.00;98271.19;5003665;28;19945;-90
2023/12/21 15:41:45;;;;;;;;;;;;;;;4.67;100.00;98269.34;5002668;28;19922;-85
2023/12/21 15:44:11;;;;;;;;;;;;;;;4.70;100.00;98267.44;5004457;28;19984;-84
2023/12/21 15:46:36;;;;;;;;;;;;;;;4.76;100.00;98268.94;5002949;28;20373;-82
2023/12/21 15:49:02;;;;;;;;;;;;;;;4.55;100.00;98273.34;5004552;28;19921;-85
2023/12/21 15:51:27;;;;;;;;;;;;;;;4.63;100.00;98267.78;5004101;28;20020;-86
2023/12/21 15:53:53;;;;;;;;;;;;;;;4.64;100.00;98272.09;5005615;28;19922;-84
2023/12/21 15:56:18;;;;;;;;;;;;;;;4.64;100.00;98274.72;5002731;28;19918;-83
2023/12/21 15:58:43;;;;;;;;;;;;;;;4.64;100.00;98269.47;5003685;28;19921;-92
2023/12/21 16:01:09;;;;;;;;;;;;;;;4.60;100.00;98276.63;5002334;28;19940;-86
2023/12/21 16:03:34;;;;;;;;;;;;;;;4.66;100.00;98283.38;5002630;28;19925;-83
2023/12/21 16:05:59;;;;;;;;;;;;;;;4.69;100.00;98280.63;5003668;28;19918;-83
2023/12/21 16:08:25;;;;;;;;;;;;;;;4.79;100.00;98284.56;5003293;28;19983;-84
2023/12/21 16:10:50;;;;;;;;;;;;;;;4.72;100.00;98285.72;5002561;28;20020;-86
2023/12/21 16:13:15;;;;;;;;;;;;;;;4.67;100.00;98283.31;5003958;28;20273;-86
2023/12/21 16:15:41;;;;;;;;;;;;;;;4.60;100.00;98291.53;5002659;28;19921;-84
2023/12/21 16:18:06;;;;;;;;;;;;;;;4.64;100.00;98287.84;5003225;28;19976;-82
2023/12/21 16:20:32;;;;;;;;;;;;;;;4.59;100.00;98285.41;5006084;28;19917;-92
2023/12/21 16:22:57;;;;;;;;;;;;;;;4.67;100.00;98278.06;5006670;28;19988;-90
2023/12/21 16:25:22;;;;;;;;;;;;;;;4.69;100.00;98281.50;5002655;28;19921;-81
2023/12/21 16:27:48;;;;;;;;;;;;;;;4.72;100.00;98275.25;5002656;28;19965;-79
2023/12/21 16:30:19;;;;;;;;;;;;;;;4.64;100.00;98287.84;5001610;28;19928;-88
2023/12/21 16:32:45;;;;;;;;;;;;;;;4.61;100.00;98287.97;5009436;28;19960;-92
2023/12/21 16:35:13;;;;;;;;;;;;;;;4.59;100.00;98289.81;5001920;28;20375;-83
2023/12/21 16:37:38;;;;;;;;;;;;;;;4.65;100.00;98282.53;5003290;28;19922;-79
2023/12/21 16:40:04;;;;;;;;;;;;;;;4.60;100.00;98281.88;5000785;28;19925;-80
2023/12/21 16:42:29;;;;;;;;;;;;;;;4.61;100.00;98294.09;5002124;28;20363;-81
2023/12/21 16:44:55;;;;;;;;;;;;;;;4.67;100.00;98285.09;5000551;28;19979;-84
2023/12/21 16:47:20;;;;;;;;;;;;;;;4.68;100.00;98289.44;5001706;28;19928;-88
2023/12/21 16:49:45;;;;;;;;;;;;;;;4.68;100.00;98279.78;5003077;28;19913;-80
2023/12/21 16:52:11;;;;;;;;;;;;;;;4.70;100.00;98287.59;5001951;28;20416;-84
2023/12/21 16:54:36;;;;;;;;;;;;;;;4.79;100.00;98297.69;5003660;28;19917;-83
2023/12/21 16:57:03;;;;;;;;;;;;;;;4.61;100.00;98303.72;5001149;28;19925;-85
2023/12/21 16:59:28;;;;;;;;;;;;;;;4.63;100.00;98296.66;5002129;28;20296;-82
2023/12/21 17:01:54;;;;;;;;;;;;;;;4.59;100.00;98300.31;5000884;28;19928;-83
2023/12/21 17:04:19;;;;;;;;;;;;;;;4.64;100.00;98314.06;4999511;28;19961;-82
2023/12/21 17:06:44;;;;;;;;;;;;;;;4.64;100.00;98293.09;5000019;28;19922;-94
2023/12/21 17:09:10;;;;;;;;;;;;;;;4.59;100.00;98300.31;5001080;28;19937;-85
2023/12/21 17:11:35;;;;;;;;;;;;;;;4.52;100.00;98303.19;5002627;28;19922;-84
2023/12/21 17:14:01;;;;;;;;;;;;;;;4.48;100.00;98321.72;5002061;28;19929;-82
2023/12/21 17:16:28;;;;;;;;;;;;;;;4.47;100.00;98323.50;5000796;28;19922;-84
2023/12/21 17:18:53;;;;;;;;;;;;;;;4.53;100.00;98309.28;5001490;28;20361;-82
2023/12/21 17:21:19;;;;;;;;;;;;;;;4.52;100.00;98300.56;5002852;28;19929;-82
2023/12/21 17:23:45;;;;;;;;;;;;;;;4.48;100.00;98301.63;5001268;28;20436;-82
2023/12/21 17:26:10;;;;;;;;;;;;;;;4.55;100.00;98305.69;5000499;28;20462;-84
2023/12/21 17:28:35;;;;;;;;;;;;;;;4.57;100.00;98315.25;5001117;28;19960;-84
2023/12/21 17:31:02;;;;;;;;;;;;;;;4.61;100.00;98319.44;5001659;28;19975;-83
2023/12/21 17:33:27;;;;;;;;;;;;;;;4.54;100.00;98330.19;5002627;28;19924;-83
2023/12/21 17:35:53;;;;;;;;;;;;;;;4.60;100.00;98317.75;5002507;28;19918;-81
2023/12/21 17:38:20;;;;;;;;;;;;;;;4.52;100.00;98328.56;5002393;28;19925;-82
2023/12/21 17:40:45;;;;;;;;;;;;;;;4.43;100.00;98342.06;5001511;28;20328;-86
2023/12/21 17:43:11;;;;;;;;;;;;;;;4.42;100.00;98351.69;5001786;28;19926;-81
2023/12/21 17:45:36;;;;;;;;;;;;;;;4.44;100.00;98364.75;5000894;28;19918;-83
2023/12/21 17:48:02;;;;;;;;;;;;;;;4.42;100.00;98362.19;5001895;28;19960;-81
2023/12/21 17:50:27;;;;;;;;;;;;;;;4.43;100.00;98355.16;4998504;28;19926;-81
2023/12/21 17:52:53;;;;;;;;;;;;;;;4.45;100.00;98383.06;5003054;28;19929;-82
2023/12/21 17:55:19;;;;;;;;;;;;;;;4.48;100.00;98401.28;5001877;28;19929;-82
2023/12/21 17:57:44;;;;;;;;;;;;;;;4.57;100.00;98373.81;5006270;28;19918;-81
2023/12/21 18:00:09;;;;;;;;;;;;;;;4.51;100.00;98374.06;5003241;28;19929;-81
2023/12/21 18:02:35;;;;;;;;;;;;;;;4.49;100.00;98383.78;5005680;28;19925;-83
2023/12/21 18:05:00;;;;;;;;;;;;;;;4.43;100.00;98384.03;5004922;28;19928;-82
2023/12/21 18:07:25;;;;;;;;;;;;;;;4.41;100.00;98376.22;5005927;28;20039;-82
2023/12/21 18:09:50;;;;;;;;;;;;;;;4.29;100.00;98364.47;5002584;28;19929;-83
2023/12/21 18:12:16;;;;;;;;;;;;;;;4.32;100.00;98376.56;5006962;28;19989;-81
2023/12/21 18:14:42;;;;;;;;;;;;;;;4.34;100.00;98369.50;5002953;28;20016;-83
2023/12/21 18:17:07;;;;;;;;;;;;;;;4.32;100.00;98372.22;5004728;28;19990;-81
2023/12/21 18:19:32;;;;;;;;;;;;;;;4.32;100.00;98379.19;5002548;28;19933;-81
2023/12/21 18:21:58;;;;;;;;;;;;;;;4.31;100.00;98375.72;5004413;28;19928;-85
2023/12/21 18:24:24;;;;;;;;;;;;;;;4.29;100.00;98387.19;5004722;28;19926;-82
2023/12/21 18:26:49;;;;;;;;;;;;;;;4.28;100.00;98375.00;5005497;28;19928;-81
2023/12/21 18:29:15;;;;;;;;;;;;;;;4.25;100.00;98372.50;5003082;28;19976;-82
2023/12/21 18:31:41;;;;;;;;;;;;;;;4.27;100.00;98375.91;5004066;28;19917;-81
2023/12/21 18:34:07;;;;;;;;;;;;;;;4.26;100.00;98387.31;5002114;28;19932;-81
2023/12/21 18:36:32;;;;;;;;;;;;;;;4.32;100.00;98387.94;5003640;28;20004;-82
2023/12/21 18:38:57;;;;;;;;;;;;;;;4.27;100.00;98392.50;5004147;28;20020;-84
2023/12/21 18:41:23;;;;;;;;;;;;;;;4.28;100.00;98390.75;5004987;28;19950;-83
2023/12/21 18:43:49;;;;;;;;;;;;;;;4.34;100.00;98385.22;5005181;28;19956;-82
2023/12/21 18:46:14;;;;;;;;;;;;;;;4.35;100.00;98386.94;5003535;28;20273;-84
2023/12/21 18:48:39;;;;;;;;;;;;;;;4.29;100.00;98397.66;5003816;28;19926;-79
2023/12/21 18:51:04;;;;;;;;;;;;;;;4.35;100.00;98392.19;5002163;28;19921;-82
2023/12/21 18:53:31;;;;;;;;;;;;;;;4.38;100.00;98402.56;5002959;28;20012;-85
2023/12/21 18:55:56;;;;;;;;;;;;;;;4.35;100.00;98403.53;5002644;28;19927;-84
2023/12/21 18:58:21;;;;;;;;;;;;;;;4.32;100.00;98390.56;5003719;28;20295;-81
2023/12/21 19:00:47;;;;;;;;;;;;;;;4.28;100.00;98409.94;5001843;28;19930;-81
2023/12/21 19:03:12;;;;;;;;;;;;;;;4.31;100.00;98422.09;5000990;28;20344;-81
2023/12/21 19:05:38;;;;;;;;;;;;;;;4.29;100.00;98416.91;5001264;28;20376;-87
2023/12/21 19:08:04;;;;;;;;;;;;;;;4.35;100.00;98435.00;5002438;28;19922;-86
2023/12/21 19:10:29;;;;;;;;;;;;;;;4.31;100.00;98422.09;5002559;28;19979;-83
2023/12/21 19:12:54;;;;;;;;;;;;;;;4.29;100.00;98423.91;5001735;28;19933;-88
2023/12/21 19:15:19;;;;;;;;;;;;;;;4.27;100.00;98442.31;5002104;28;19964;-85
2023/12/21 19:17:45;;;;;;;;;;;;;;;4.30;100.00;98439.56;5002638;28;19921;-82
2023/12/21 19:20:10;;;;;;;;;;;;;;;4.30;100.00;98430.84;5002500;28;19925;-82
2023/12/21 19:22:35;;;;;;;;;;;;;;;4.35;100.00;98431.53;5002292;28;19972;-85
2023/12/21 19:25:00;;;;;;;;;;;;;;;4.31;100.00;98406.34;5004331;28;19932;-82
2023/12/21 19:27:26;;;;;;;;;;;;;;;4.32;100.00;98401.06;5002800;28;19929;-84
2023/12/21 19:29:51;;;;;;;;;;;;;;;4.38;100.00;98410.44;5002135;28;20432;-82
2023/12/21 19:32:16;;;;;;;;;;;;;;;4.35;100.00;98415.78;5001940;28;19921;-79
2023/12/21 19:34:42;;;;;;;;;;;;;;;4.37;100.00;98413.97;5002678;28;19922;-84
2023/12/21 19:37:09;;;;;;;;;;;;;;;4.40;100.00;98416.47;5001804;28;20080;-81
2023/12/21 19:39:34;;;;;;;;;;;;;;;4.58;100.00;98414.03;5001879;28;19930;-81
2023/12/21 19:42:00;;;;;;;;;;;;;;;4.35;100.00;98418.41;5002228;28;19980;-83
2023/12/21 19:44:25;;;;;;;;;;;;;;;4.36;100.00;98425.38;5001768;28;19921;-84
2023/12/21 19:46:51;;;;;;;;;;;;;;;4.52;100.00;98430.88;5002849;28;19922;-81
2023/12/21 19:49:16;;;;;;;;;;;;;;;4.35;100.00;98424.50;5003809;28;19917;-80
2023/12/21 19:51:41;;;;;;;;;;;;;;;4.30;100.00;98425.63;5000367;28;19932;-80
2023/12/21 19:54:07;;;;;;;;;;;;;;;4.31;100.00;98440.44;5003872;28;20292;-85
2023/12/21 19:56:32;;;;;;;;;;;;;;;4.30;100.00;98452.69;5003112;28;19925;-84
2023/12/21 19:58:57;;;;;;;;;;;;;;;4.31;100.00;98456.19;5002830;28;19922;-84
2023/12/21 20:01:25;;;;;;;;;;;;;;;4.33;100.00;98446.47;5002194;28;19967;-82
2023/12/21 20:03:51;;;;;;;;;;;;;;;4.36;100.00;98467.34;5002233;28;19921;-85
2023/12/21 20:06:16;;;;;;;;;;;;;;;4.28;100.00;98454.53;5003471;28;19940;-83
2023/12/21 20:08:41;;;;;;;;;;;;;;;4.32;100.00;98465.75;5002335;28;19929;-84
2023/12/21 20:11:07;;;;;;;;;;;;;;;7.80;100.00;98457.03;5003397;28;19918;-78
2023/12/21 20:13:32;;;;;;;;;;;;;;;6.16;100.00;98470.31;5002766;28;20372;-82
2023/12/21 20:15:58;;;;;;;;;;;;;;;4.90;100.00;98471.31;4999593;28;19976;-81
2023/12/21 20:18:23;;;;;;;;;;;;;;;4.49;100.00;98481.69;5003084;28;19926;-81
2023/12/21 20:20:48;;;;;;;;;;;;;;;4.57;100.00;98475.28;5002345;28;20003;-81
2023/12/21 20:23:14;;;;;;;;;;;;;;;4.43;100.00;98468.78;5003458;28;19979;-80
2023/12/21 20:25:39;;;;;;;;;;;;;;;4.36;100.00;98470.81;5003146;28;19972;-82
2023/12/21 20:28:07;;;;;;;;;;;;;;;4.36;100.00;98468.19;5000617;28;19926;-82
2023/12/21 20:30:34;;;;;;;;;;;;;;;4.31;100.00;98469.28;5001698;28;19925;-85
2023/12/21 20:32:59;;;;;;;;;;;;;;;4.30;100.00;98481.53;5002931;28;20384;-85
2023/12/21 20:35:24;;;;;;;;;;;;;;;4.40;100.00;98479.41;5003690;28;19921;-83
2023/12/21 20:37:50;;;;;;;;;;;;;;;4.40;100.00;98474.16;5001079;28;19928;-85
2023/12/21 20:40:16;;;;;;;;;;;;;;;4.35;100.00;98463.00;5003361;28;20416;-85